createdAt,value
2022-10-23T00:00:17.478Z,17.90
2022-10-23T00:01:17.411Z,17.90
2022-10-23T00:02:17.446Z,16.00
2022-10-23T00:03:17.400Z,22.50
2022-10-23T00:04:17.383Z,15.60
2022-10-23T00:05:17.450Z,19.50
2022-10-23T00:06:17.418Z,19.60
2022-10-23T00:07:17.403Z,23.60
2022-10-23T00:08:17.377Z,19.30
2022-10-23T00:09:17.348Z,18.40
2022-10-23T00:10:17.348Z,19.50
2022-10-23T00:11:17.342Z,19.30
2022-10-23T00:12:17.328Z,17.80
2022-10-23T00:13:17.342Z,15.90
2022-10-23T00:14:17.316Z,16.90
2022-10-23T00:15:17.307Z,14.40
2022-10-23T00:16:17.308Z,20.50
2022-10-23T00:17:17.613Z,17.90
2022-10-23T00:18:17.289Z,19.80
2022-10-23T00:19:17.298Z,14.90
2022-10-23T00:20:17.272Z,13.00
2022-10-23T00:21:17.274Z,17.00
2022-10-23T00:22:17.297Z,12.40
2022-10-23T00:23:17.269Z,15.90
2022-10-23T00:24:17.249Z,12.20
2022-10-23T00:25:17.248Z,16.70
2022-10-23T00:26:17.234Z,19.20
2022-10-23T00:27:17.231Z,14.80
2022-10-23T00:28:17.227Z,16.70
2022-10-23T00:29:17.210Z,14.40
2022-10-23T00:30:17.221Z,16.60
2022-10-23T00:31:17.204Z,14.50
2022-10-23T00:32:17.191Z,15.00
2022-10-23T00:33:17.187Z,16.10
2022-10-23T00:34:17.212Z,17.90
2022-10-23T00:35:17.175Z,14.40
2022-10-23T00:36:17.170Z,12.80
2022-10-23T00:37:17.153Z,14.70
2022-10-23T00:38:17.177Z,20.80
2022-10-23T00:39:17.148Z,17.00
2022-10-23T00:40:17.129Z,21.10
2022-10-23T00:41:17.147Z,17.70
2022-10-23T00:42:17.120Z,15.80
2022-10-23T00:43:17.112Z,15.40
2022-10-23T00:44:17.115Z,18.60
2022-10-23T00:45:17.124Z,18.00
2022-10-23T00:46:17.863Z,16.20
2022-10-23T00:47:17.096Z,19.40
2022-10-23T00:48:17.087Z,17.60
2022-10-23T00:49:17.074Z,18.70
2022-10-23T00:50:17.096Z,15.40
2022-10-23T00:51:17.063Z,18.50
2022-10-23T00:52:17.049Z,16.80
2022-10-23T00:53:17.047Z,19.40
2022-10-23T00:54:24.135Z,15.20
2022-10-23T00:55:18.027Z,18.40
2022-10-23T00:56:17.024Z,15.10
2022-10-23T00:57:17.559Z,16.10
2022-10-23T00:58:17.009Z,16.40
2022-10-23T00:59:17.006Z,18.30
2022-10-23T01:00:16.990Z,20.90
2022-10-23T01:01:17.076Z,18.50
2022-10-23T01:02:17.231Z,19.10
2022-10-23T01:03:16.979Z,16.80
2022-10-23T01:04:16.965Z,15.60
2022-10-23T01:05:16.966Z,170.80
2022-10-23T01:06:16.950Z,83.20
2022-10-23T01:07:16.945Z,24.70
2022-10-23T01:08:16.947Z,16.60
2022-10-23T01:09:16.934Z,28.10
2022-10-23T01:10:16.959Z,100.90
2022-10-23T01:11:16.927Z,37.40
2022-10-23T01:12:16.909Z,30.80
2022-10-23T01:13:16.929Z,25.50
2022-10-23T01:14:16.912Z,26.80
2022-10-23T01:15:16.890Z,17.50
2022-10-23T01:16:16.886Z,19.10
2022-10-23T01:17:16.872Z,18.10
2022-10-23T01:18:16.871Z,16.00
2022-10-23T01:19:16.862Z,19.70
2022-10-23T01:20:16.848Z,16.30
2022-10-23T01:21:16.860Z,14.30
2022-10-23T01:22:16.942Z,18.90
2022-10-23T01:23:16.836Z,15.40
2022-10-23T01:24:16.829Z,18.60
2022-10-23T01:25:16.813Z,15.80
2022-10-23T01:26:17.337Z,14.70
2022-10-23T01:27:16.805Z,14.60
2022-10-23T01:28:16.792Z,35.00
2022-10-23T01:29:16.794Z,89.80
2022-10-23T01:30:16.779Z,110.50
2022-10-23T01:31:16.771Z,41.90
2022-10-23T01:32:16.775Z,50.30
2022-10-23T01:33:16.770Z,50.60
2022-10-23T01:34:16.751Z,14.90
2022-10-23T01:35:16.743Z,14.10
2022-10-23T01:36:16.748Z,44.10
2022-10-23T01:37:16.746Z,35.20
2022-10-23T01:38:16.730Z,35.50
2022-10-23T01:39:16.720Z,24.40
2022-10-23T01:40:16.710Z,21.40
2022-10-23T01:41:16.725Z,24.40
2022-10-23T01:42:16.741Z,28.50
2022-10-23T01:43:16.698Z,19.20
2022-10-23T01:44:16.686Z,23.80
2022-10-23T01:45:16.668Z,33.40
2022-10-23T01:46:16.663Z,41.90
2022-10-23T01:47:16.718Z,29.80
2022-10-23T01:48:16.697Z,94.00
2022-10-23T01:49:16.693Z,219.60
2022-10-23T01:50:16.638Z,248.80
2022-10-23T01:51:16.626Z,117.80
2022-10-23T01:52:16.681Z,134.50
2022-10-23T01:53:16.613Z,234.00
2022-10-23T01:54:16.603Z,206.00
2022-10-23T01:55:16.607Z,276.40
2022-10-23T01:56:16.590Z,158.30
2022-10-23T01:57:16.590Z,281.20
2022-10-23T01:58:16.612Z,245.70
2022-10-23T01:59:16.576Z,222.10
2022-10-23T02:00:16.568Z,253.70
2022-10-23T02:01:16.704Z,197.20
2022-10-23T02:02:16.714Z,224.00
2022-10-23T02:03:16.556Z,243.70
2022-10-23T02:04:16.543Z,222.30
2022-10-23T02:05:16.533Z,211.60
2022-10-23T02:06:16.521Z,244.90
2022-10-23T02:07:16.525Z,291.00
2022-10-23T02:08:16.506Z,355.80
2022-10-23T02:09:16.512Z,402.50
2022-10-23T02:10:16.499Z,442.60
2022-10-23T02:11:16.488Z,439.90
2022-10-23T02:12:16.588Z,405.60
2022-10-23T02:13:16.472Z,437.60
2022-10-23T02:14:16.488Z,433.50
2022-10-23T02:15:16.461Z,451.70
2022-10-23T02:16:16.452Z,447.40
2022-10-23T02:17:16.448Z,483.40
2022-10-23T02:18:23.519Z,503.00
2022-10-23T02:19:16.580Z,475.90
2022-10-23T02:20:16.416Z,458.90
2022-10-23T02:21:16.421Z,386.60
2022-10-23T02:22:16.404Z,418.90
2022-10-23T02:23:16.405Z,430.00
2022-10-23T02:24:16.423Z,328.10
2022-10-23T02:25:16.389Z,404.00
2022-10-23T02:26:16.395Z,367.40
2022-10-23T02:27:16.370Z,379.80
2022-10-23T02:28:16.361Z,421.50
2022-10-23T02:29:17.110Z,435.40
2022-10-23T02:30:16.387Z,437.30
2022-10-23T02:31:16.351Z,445.60
2022-10-23T02:32:16.341Z,354.30
2022-10-23T02:33:16.327Z,314.80
2022-10-23T02:34:17.495Z,275.90
2022-10-23T02:35:16.813Z,228.30
2022-10-23T02:36:16.316Z,236.30
2022-10-23T02:37:16.320Z,216.40
2022-10-23T02:38:16.404Z,183.90
2022-10-23T02:39:16.330Z,201.50
2022-10-23T02:40:16.299Z,175.80
2022-10-23T02:41:16.323Z,225.60
2022-10-23T02:42:16.264Z,203.90
2022-10-23T02:43:16.270Z,249.50
2022-10-23T02:44:16.259Z,243.40
2022-10-23T02:45:16.243Z,246.70
2022-10-23T02:46:16.266Z,256.70
2022-10-23T02:47:16.244Z,249.50
2022-10-23T02:48:16.223Z,224.40
2022-10-23T02:49:16.229Z,250.30
2022-10-23T02:50:16.220Z,157.50
2022-10-23T02:51:16.356Z,118.30
2022-10-23T02:52:16.187Z,107.70
2022-10-23T02:53:16.195Z,98.40
2022-10-23T02:54:16.178Z,92.80
2022-10-23T02:55:16.176Z,86.10
2022-10-23T02:56:16.596Z,129.90
2022-10-23T02:57:16.160Z,131.40
2022-10-23T02:58:16.148Z,132.50
2022-10-23T02:59:16.143Z,210.00
2022-10-23T03:00:16.133Z,258.40
2022-10-23T03:01:16.756Z,187.40
2022-10-23T03:02:16.223Z,181.10
2022-10-23T03:03:16.122Z,102.30
2022-10-23T03:04:16.113Z,136.90
2022-10-23T03:05:16.109Z,116.90
2022-10-23T03:06:16.098Z,93.40
2022-10-23T03:07:16.125Z,102.50
2022-10-23T03:08:16.085Z,137.90
2022-10-23T03:09:16.069Z,107.70
2022-10-23T03:10:16.071Z,119.50
2022-10-23T03:11:16.065Z,155.00
2022-10-23T03:12:16.583Z,101.80
2022-10-23T03:13:16.049Z,145.10
2022-10-23T03:14:16.032Z,161.30
2022-10-23T03:15:16.037Z,164.50
2022-10-23T03:16:16.028Z,215.30
2022-10-23T03:17:16.028Z,149.70
2022-10-23T03:18:16.039Z,235.10
2022-10-23T03:19:15.999Z,142.10
2022-10-23T03:20:15.989Z,233.70
2022-10-23T03:21:16.004Z,233.20
2022-10-23T03:22:15.985Z,168.10
2022-10-23T03:23:15.995Z,173.10
2022-10-23T03:24:15.969Z,162.10
2022-10-23T03:25:15.968Z,172.20
2022-10-23T03:26:15.955Z,225.80
2022-10-23T03:27:15.974Z,91.50
2022-10-23T03:28:15.958Z,99.10
2022-10-23T03:29:15.935Z,82.80
2022-10-23T03:30:15.938Z,87.50
2022-10-23T03:31:15.965Z,81.20
2022-10-23T03:32:15.905Z,98.90
2022-10-23T03:33:15.908Z,88.60
2022-10-23T03:34:15.932Z,67.20
2022-10-23T03:35:15.903Z,63.70
2022-10-23T03:36:15.882Z,67.20
2022-10-23T03:37:15.905Z,96.50
2022-10-23T03:38:15.888Z,126.10
2022-10-23T03:39:15.939Z,91.60
2022-10-23T03:40:15.876Z,102.60
2022-10-23T03:41:15.866Z,78.80
2022-10-23T03:42:15.838Z,101.70
2022-10-23T03:43:15.837Z,111.40
2022-10-23T03:44:15.826Z,160.80
2022-10-23T03:45:15.817Z,366.70
2022-10-23T03:46:15.828Z,356.20
2022-10-23T03:47:15.811Z,199.80
2022-10-23T03:48:15.806Z,304.80
2022-10-23T03:49:15.789Z,159.50
2022-10-23T03:50:15.798Z,142.20
2022-10-23T03:51:15.796Z,106.70
2022-10-23T03:52:15.827Z,133.20
2022-10-23T03:53:15.775Z,101.90
2022-10-23T03:54:15.874Z,85.80
2022-10-23T03:55:15.742Z,102.70
2022-10-23T03:56:15.943Z,90.70
2022-10-23T03:57:15.734Z,75.40
2022-10-23T03:58:15.813Z,118.00
2022-10-23T03:59:15.742Z,106.20
2022-10-23T04:00:15.719Z,121.80
2022-10-23T04:01:15.768Z,144.10
2022-10-23T04:02:15.722Z,98.50
2022-10-23T04:03:15.684Z,140.60
2022-10-23T04:04:15.692Z,138.30
2022-10-23T04:05:15.671Z,171.80
2022-10-23T04:06:15.699Z,149.90
2022-10-23T04:07:15.655Z,197.10
2022-10-23T04:08:19.189Z,198.20
2022-10-23T04:09:15.704Z,291.40
2022-10-23T04:10:15.635Z,302.30
2022-10-23T04:11:15.639Z,275.50
2022-10-23T04:12:15.627Z,360.80
2022-10-23T04:13:15.623Z,257.90
2022-10-23T04:14:15.612Z,242.80
2022-10-23T04:15:15.602Z,186.70
2022-10-23T04:16:15.609Z,112.40
2022-10-23T04:17:15.615Z,120.30
2022-10-23T04:18:15.599Z,207.70
2022-10-23T04:19:15.567Z,256.70
2022-10-23T04:20:15.561Z,229.20
2022-10-23T04:21:15.564Z,190.30
2022-10-23T04:22:15.565Z,131.20
2022-10-23T04:23:15.968Z,131.20
2022-10-23T04:24:15.534Z,159.70
2022-10-23T04:25:15.527Z,70.10
2022-10-23T04:26:15.525Z,71.30
2022-10-23T04:27:15.589Z,158.40
2022-10-23T04:28:15.509Z,184.80
2022-10-23T04:29:15.501Z,237.20
2022-10-23T04:30:15.484Z,227.30
2022-10-23T04:31:15.488Z,123.30
2022-10-23T04:32:15.482Z,85.80
2022-10-23T04:33:15.490Z,69.40
2022-10-23T04:34:15.515Z,94.30
2022-10-23T04:35:15.461Z,109.60
2022-10-23T04:36:15.452Z,119.00
2022-10-23T04:37:15.449Z,196.00
2022-10-23T04:38:15.474Z,68.20
2022-10-23T04:39:15.918Z,72.20
2022-10-23T04:40:15.427Z,98.50
2022-10-23T04:41:15.414Z,132.00
2022-10-23T04:42:15.503Z,93.30
2022-10-23T04:43:15.401Z,79.90
2022-10-23T04:44:15.403Z,80.10
2022-10-23T04:45:15.405Z,69.50
2022-10-23T04:46:15.411Z,105.10
2022-10-23T04:47:15.405Z,90.80
2022-10-23T04:48:15.361Z,149.50
2022-10-23T04:49:15.366Z,85.50
2022-10-23T04:50:15.349Z,94.60
2022-10-23T04:51:15.339Z,166.20
2022-10-23T04:52:15.386Z,247.20
2022-10-23T04:53:15.322Z,167.00
2022-10-23T04:54:15.345Z,190.60
2022-10-23T04:55:15.309Z,172.10
2022-10-23T04:56:15.298Z,136.50
2022-10-23T04:57:15.313Z,213.30
2022-10-23T04:58:15.307Z,153.60
2022-10-23T04:59:15.279Z,141.10
2022-10-23T05:00:15.284Z,182.00
2022-10-23T05:01:15.415Z,142.10
2022-10-23T05:02:15.255Z,202.30
2022-10-23T05:03:15.283Z,241.00
2022-10-23T05:04:15.247Z,307.30
2022-10-23T05:05:15.243Z,194.70
2022-10-23T05:06:15.248Z,114.80
2022-10-23T05:07:15.297Z,114.10
2022-10-23T05:08:17.931Z,133.90
2022-10-23T05:09:15.214Z,134.10
2022-10-23T05:10:15.225Z,138.50
2022-10-23T05:11:15.211Z,122.90
2022-10-23T05:12:15.206Z,121.60
2022-10-23T05:13:15.185Z,88.40
2022-10-23T05:14:18.096Z,114.90
2022-10-23T05:15:15.179Z,87.10
2022-10-23T05:16:15.184Z,107.30
2022-10-23T05:17:15.152Z,92.80
2022-10-23T05:18:15.149Z,69.90
2022-10-23T05:19:15.138Z,101.70
2022-10-23T05:20:15.138Z,183.00
2022-10-23T05:21:15.137Z,212.70
2022-10-23T05:22:15.133Z,118.70
2022-10-23T05:23:15.118Z,145.90
2022-10-23T05:24:15.105Z,167.80
2022-10-23T05:25:15.099Z,223.50
2022-10-23T05:26:15.134Z,150.20
2022-10-23T05:27:15.076Z,154.50
2022-10-23T05:28:15.292Z,117.00
2022-10-23T05:29:15.073Z,84.70
2022-10-23T05:30:15.063Z,122.70
2022-10-23T05:31:15.055Z,79.20
2022-10-23T05:32:15.105Z,120.60
2022-10-23T05:33:15.044Z,91.30
2022-10-23T05:34:15.842Z,93.60
2022-10-23T05:35:15.032Z,65.30
2022-10-23T05:36:15.032Z,112.80
2022-10-23T05:37:15.012Z,94.40
2022-10-23T05:38:15.003Z,82.50
2022-10-23T05:39:14.994Z,99.40
2022-10-23T05:40:14.988Z,84.90
2022-10-23T05:41:14.986Z,105.20
2022-10-23T05:42:15.004Z,186.20
2022-10-23T05:43:15.013Z,172.20
2022-10-23T05:44:14.971Z,187.80
2022-10-23T05:45:14.963Z,74.40
2022-10-23T05:46:14.956Z,93.20
2022-10-23T05:47:14.939Z,111.80
2022-10-23T05:48:22.863Z,123.30
2022-10-23T05:49:15.959Z,70.50
2022-10-23T05:50:15.197Z,122.70
2022-10-23T05:51:14.906Z,136.30
2022-10-23T05:52:14.932Z,77.70
2022-10-23T05:53:14.891Z,105.40
2022-10-23T05:54:14.884Z,72.40
2022-10-23T05:55:14.882Z,91.20
2022-10-23T05:56:14.910Z,150.70
2022-10-23T05:57:14.961Z,96.50
2022-10-23T05:58:14.878Z,107.30
2022-10-23T05:59:17.896Z,72.50
2022-10-23T06:00:15.844Z,88.70
2022-10-23T06:01:14.900Z,76.60
2022-10-23T06:02:14.898Z,48.00
2022-10-23T06:03:14.816Z,93.90
2022-10-23T06:04:14.812Z,112.10
2022-10-23T06:05:14.801Z,242.10
2022-10-23T06:06:14.815Z,156.80
2022-10-23T06:07:14.811Z,109.60
2022-10-23T06:08:14.782Z,98.40
2022-10-23T06:09:14.779Z,205.40
2022-10-23T06:10:14.774Z,146.90
2022-10-23T06:11:14.779Z,138.10
2022-10-23T06:12:14.760Z,164.40
2022-10-23T06:13:14.911Z,112.70
2022-10-23T06:14:14.765Z,153.50
2022-10-23T06:15:14.772Z,209.00
2022-10-23T06:16:14.983Z,149.90
2022-10-23T06:17:14.715Z,152.00
2022-10-23T06:18:14.710Z,161.80
2022-10-23T06:19:14.725Z,177.40
2022-10-23T06:20:14.698Z,145.00
2022-10-23T06:21:14.701Z,196.60
2022-10-23T06:22:14.731Z,78.50
2022-10-23T06:23:14.678Z,162.50
2022-10-23T06:24:14.676Z,145.70
2022-10-23T06:25:14.664Z,193.10
2022-10-23T06:26:14.654Z,207.10
2022-10-23T06:27:14.676Z,199.50
2022-10-23T06:28:17.068Z,326.90
2022-10-23T06:29:15.645Z,305.50
2022-10-23T06:30:14.643Z,266.30
2022-10-23T06:31:14.628Z,350.70
2022-10-23T06:32:14.614Z,190.60
2022-10-23T06:33:14.606Z,201.50
2022-10-23T06:34:14.616Z,148.70
2022-10-23T06:35:14.591Z,148.50
2022-10-23T06:36:14.590Z,248.50
2022-10-23T06:37:14.574Z,220.90
2022-10-23T06:38:14.559Z,297.30
2022-10-23T06:39:15.174Z,304.90
2022-10-23T06:40:14.557Z,436.70
2022-10-23T06:41:14.979Z,534.70
2022-10-23T06:42:14.538Z,652.20
2022-10-23T06:43:14.535Z,837.60
2022-10-23T06:44:14.532Z,574.30
2022-10-23T06:45:14.516Z,782.70
2022-10-23T06:46:14.525Z,322.20
2022-10-23T06:47:14.639Z,296.70
2022-10-23T06:48:14.505Z,225.50
2022-10-23T06:49:14.609Z,96.10
2022-10-23T06:50:15.567Z,45.30
2022-10-23T06:51:14.475Z,97.00
2022-10-23T06:52:41.751Z,84.20
2022-10-23T06:53:15.459Z,69.40
2022-10-23T06:54:14.460Z,39.60
2022-10-23T06:55:14.460Z,12.50
2022-10-23T06:56:14.437Z,7.90
2022-10-23T06:57:14.446Z,13.50
2022-10-23T06:58:14.429Z,66.40
2022-10-23T06:59:14.417Z,86.50
2022-10-23T07:00:14.429Z,141.90
2022-10-23T07:01:14.702Z,206.60
2022-10-23T07:02:14.430Z,131.70
2022-10-23T07:03:14.396Z,208.90
2022-10-23T07:04:14.508Z,215.00
2022-10-23T07:05:14.519Z,304.80
2022-10-23T07:06:14.484Z,339.80
2022-10-23T07:07:14.374Z,325.50
2022-10-23T07:08:14.370Z,209.10
2022-10-23T07:09:14.360Z,225.20
2022-10-23T07:10:14.908Z,289.60
2022-10-23T07:11:15.223Z,104.80
2022-10-23T07:12:14.349Z,54.40
2022-10-23T07:13:14.330Z,99.10
2022-10-23T07:14:14.332Z,166.80
2022-10-23T07:15:14.323Z,173.60
2022-10-23T07:16:14.333Z,156.00
2022-10-23T07:17:14.318Z,170.30
2022-10-23T07:18:14.382Z,156.20
2022-10-23T07:19:14.284Z,379.70
2022-10-23T07:20:14.285Z,438.10
2022-10-23T07:21:14.282Z,191.10
2022-10-23T07:22:15.926Z,54.90
2022-10-23T07:23:14.266Z,183.30
2022-10-23T07:24:14.278Z,100.70
2022-10-23T07:25:14.261Z,87.50
2022-10-23T07:26:14.243Z,58.60
2022-10-23T07:27:14.536Z,183.40
2022-10-23T07:28:14.233Z,268.00
2022-10-23T07:29:14.222Z,408.30
2022-10-23T07:30:14.209Z,567.30
2022-10-23T07:31:14.203Z,351.80
2022-10-23T07:32:14.200Z,305.30
2022-10-23T07:33:14.189Z,451.70
2022-10-23T07:34:14.204Z,302.00
2022-10-23T07:36:14.170Z,298.50
2022-10-23T07:37:14.165Z,117.80
2022-10-23T07:38:14.160Z,335.10
2022-10-23T07:39:14.177Z,560.60
2022-10-23T07:40:14.152Z,277.10
2022-10-23T07:41:14.125Z,94.50
2022-10-23T07:42:14.125Z,134.40
2022-10-23T07:43:14.117Z,77.30
2022-10-23T07:44:14.109Z,427.80
2022-10-23T07:45:14.110Z,580.00
2022-10-23T07:46:14.091Z,147.60
2022-10-23T07:47:14.093Z,120.40
2022-10-23T07:48:14.089Z,405.30
2022-10-23T07:49:14.077Z,507.60
2022-10-23T07:50:14.103Z,466.60
2022-10-23T07:51:14.071Z,170.30
2022-10-23T07:52:14.065Z,330.90
2022-10-23T07:53:14.072Z,130.10
2022-10-23T07:54:14.047Z,341.80
2022-10-23T07:55:14.040Z,49.80
2022-10-23T07:56:14.027Z,47.30
2022-10-23T07:57:14.031Z,34.60
2022-10-23T07:58:14.028Z,22.80
2022-10-23T07:59:14.010Z,98.60
2022-10-23T08:00:14.070Z,89.00
2022-10-23T08:01:14.042Z,126.60
2022-10-23T08:02:14.113Z,331.70
2022-10-23T08:03:13.986Z,386.90
2022-10-23T08:04:13.970Z,387.50
2022-10-23T08:05:14.038Z,244.80
2022-10-23T08:06:13.988Z,147.90
2022-10-23T08:07:13.990Z,125.20
2022-10-23T08:08:14.025Z,65.90
2022-10-23T08:09:13.981Z,141.70
2022-10-23T08:10:13.923Z,134.50
2022-10-23T08:11:13.931Z,24.10
2022-10-23T08:12:13.917Z,64.10
2022-10-23T08:13:13.922Z,80.80
2022-10-23T08:14:13.912Z,61.30
2022-10-23T08:15:13.948Z,60.50
2022-10-23T08:16:13.883Z,8.10
2022-10-23T08:17:13.934Z,182.00
2022-10-23T08:18:13.959Z,160.50
2022-10-23T08:19:13.873Z,105.00
2022-10-23T08:20:13.869Z,152.40
2022-10-23T08:21:13.851Z,33.20
2022-10-23T08:22:13.885Z,74.80
2022-10-23T08:23:13.835Z,93.40
2022-10-23T08:24:13.835Z,45.70
2022-10-23T08:25:13.944Z,52.80
2022-10-23T08:26:13.820Z,101.20
2022-10-23T08:27:13.801Z,60.00
2022-10-23T08:28:13.808Z,22.90
2022-10-23T08:29:13.789Z,68.10
2022-10-23T08:30:13.783Z,18.00
2022-10-23T08:31:13.785Z,11.20
2022-10-23T08:32:13.766Z,12.50
2022-10-23T08:33:13.828Z,6.00
2022-10-23T08:34:13.856Z,6.20
2022-10-23T08:35:13.744Z,16.40
2022-10-23T08:36:13.745Z,25.40
2022-10-23T08:37:13.728Z,4.90
2022-10-23T08:38:13.753Z,3.30
2022-10-23T08:39:13.724Z,3.70
2022-10-23T08:40:13.713Z,3.30
2022-10-23T08:41:13.745Z,3.10
2022-10-23T08:42:13.886Z,3.00
2022-10-23T08:43:13.873Z,2.70
2022-10-23T08:44:13.697Z,3.10
2022-10-23T08:45:13.673Z,4.50
2022-10-23T08:46:13.669Z,3.10
2022-10-23T08:47:13.666Z,2.80
2022-10-23T08:48:13.654Z,3.40
2022-10-23T08:49:13.672Z,3.40
2022-10-23T08:50:13.641Z,4.20
2022-10-23T08:51:13.623Z,2.70
2022-10-23T08:52:14.325Z,3.00
2022-10-23T08:53:13.653Z,3.70
2022-10-23T08:54:21.710Z,2.90
2022-10-23T08:55:13.596Z,2.80
2022-10-23T08:56:13.592Z,2.80
2022-10-23T08:57:13.587Z,3.10
2022-10-23T08:58:13.575Z,4.00
2022-10-23T08:59:13.572Z,4.40
2022-10-23T09:00:13.576Z,2.50
2022-10-23T09:01:13.671Z,2.70
2022-10-23T09:02:13.611Z,2.90
2022-10-23T09:03:14.091Z,6.30
2022-10-23T09:04:13.549Z,3.20
2022-10-23T09:05:13.533Z,2.30
2022-10-23T09:06:13.519Z,5.10
2022-10-23T09:07:13.550Z,2.20
2022-10-23T09:08:13.519Z,2.40
2022-10-23T09:09:13.512Z,2.50
2022-10-23T09:10:13.515Z,2.00
2022-10-23T09:11:13.487Z,2.30
2022-10-23T09:12:13.487Z,2.90
2022-10-23T09:13:13.477Z,6.90
2022-10-23T09:14:13.477Z,2.10
2022-10-23T09:15:13.864Z,2.70
2022-10-23T09:16:13.747Z,2.50
2022-10-23T09:18:13.430Z,3.20
2022-10-23T09:19:13.436Z,5.20
2022-10-23T09:20:13.505Z,6.20
2022-10-23T09:21:13.436Z,3.10
2022-10-23T09:22:14.932Z,3.40
2022-10-23T09:23:13.428Z,1.90
2022-10-23T09:24:13.384Z,4.30
2022-10-23T09:25:13.395Z,4.30
2022-10-23T09:26:13.410Z,2.90
2022-10-23T09:27:13.405Z,6.50
2022-10-23T09:28:13.366Z,2.80
2022-10-23T09:29:13.377Z,3.60
2022-10-23T09:30:13.425Z,4.30
2022-10-23T09:31:13.345Z,2.40
2022-10-23T09:32:13.390Z,3.60
2022-10-23T09:33:13.325Z,2.40
2022-10-23T09:34:13.326Z,4.80
2022-10-23T09:35:13.350Z,2.30
2022-10-23T09:36:14.392Z,2.10
2022-10-23T09:37:13.305Z,6.70
2022-10-23T09:38:13.301Z,3.80
2022-10-23T09:39:13.403Z,2.80
2022-10-23T09:40:13.645Z,4.20
2022-10-23T09:41:13.282Z,1.90
2022-10-23T09:42:13.290Z,4.30
2022-10-23T09:43:13.272Z,2.40
2022-10-23T09:44:13.284Z,2.60
2022-10-23T09:45:13.280Z,3.20
2022-10-23T09:46:13.248Z,3.10
2022-10-23T09:47:13.358Z,2.30
2022-10-23T09:48:13.227Z,2.70
2022-10-23T09:49:13.243Z,2.60
2022-10-23T09:50:13.210Z,2.40
2022-10-23T09:51:13.594Z,6.70
2022-10-23T09:52:13.213Z,2.40
2022-10-23T09:53:13.409Z,4.60
2022-10-23T09:54:13.236Z,3.00
2022-10-23T09:55:13.184Z,3.10
2022-10-23T09:56:13.203Z,4.80
2022-10-23T09:57:13.338Z,2.30
2022-10-23T09:58:13.198Z,2.20
2022-10-23T09:59:13.178Z,2.90
2022-10-23T10:00:13.170Z,3.50
2022-10-23T10:01:13.375Z,2.20
2022-10-23T10:02:13.263Z,4.40
2022-10-23T10:03:13.162Z,1.90
2022-10-23T10:04:13.135Z,2.30
2022-10-23T10:05:13.187Z,2.20
2022-10-23T10:06:13.146Z,3.50
2022-10-23T10:07:13.105Z,5.00
2022-10-23T10:08:13.152Z,2.60
2022-10-23T10:09:13.103Z,2.60
2022-10-23T10:10:13.088Z,4.30
2022-10-23T10:11:13.090Z,2.70
2022-10-23T10:12:13.094Z,2.10
2022-10-23T10:13:15.052Z,10.80
2022-10-23T10:14:13.075Z,4.10
2022-10-23T10:15:13.053Z,4.80
2022-10-23T10:16:13.059Z,2.40
2022-10-23T10:17:13.086Z,3.50
2022-10-23T10:18:13.043Z,3.80
2022-10-23T10:19:13.411Z,2.50
2022-10-23T10:20:13.065Z,1.90
2022-10-23T10:21:13.032Z,3.30
2022-10-23T10:22:13.052Z,3.20
2022-10-23T10:23:13.003Z,3.90
2022-10-23T10:24:13.013Z,5.70
2022-10-23T10:25:13.052Z,4.60
2022-10-23T10:26:12.979Z,4.60
2022-10-23T10:27:13.064Z,5.30
2022-10-23T10:28:12.997Z,3.60
2022-10-23T10:29:12.974Z,2.60
2022-10-23T10:30:13.000Z,4.70
2022-10-23T10:31:12.952Z,2.70
2022-10-23T10:32:12.968Z,1.70
2022-10-23T10:33:12.941Z,4.20
2022-10-23T10:34:12.973Z,3.80
2022-10-23T10:35:12.926Z,2.60
2022-10-23T10:36:12.996Z,4.40
2022-10-23T10:37:12.902Z,3.90
2022-10-23T10:38:12.903Z,2.50
2022-10-23T10:39:12.955Z,2.80
2022-10-23T10:40:12.903Z,3.20
2022-10-23T10:41:12.904Z,2.50
2022-10-23T10:42:12.874Z,3.60
2022-10-23T10:43:13.021Z,2.90
2022-10-23T10:44:13.030Z,2.40
2022-10-23T10:45:13.809Z,3.50
2022-10-23T10:46:12.919Z,3.50
2022-10-23T10:47:14.910Z,3.30
2022-10-23T10:48:12.822Z,3.60
2022-10-23T10:49:12.840Z,3.50
2022-10-23T10:50:12.807Z,4.10
2022-10-23T10:51:12.844Z,2.70
2022-10-23T10:52:12.878Z,2.50
2022-10-23T10:53:12.826Z,4.70
2022-10-23T10:54:17.803Z,4.10
2022-10-23T10:55:12.773Z,3.50
2022-10-23T10:56:12.771Z,4.00
2022-10-23T10:57:12.769Z,2.90
2022-10-23T10:58:12.805Z,5.00
2022-10-23T10:59:12.750Z,4.10
2022-10-23T11:00:13.050Z,2.90
2022-10-23T11:01:12.896Z,6.70
2022-10-23T11:02:12.935Z,7.00
2022-10-23T11:03:12.746Z,3.70
2022-10-23T11:04:12.724Z,5.30
2022-10-23T11:05:12.702Z,4.20
2022-10-23T11:06:13.371Z,3.70
2022-10-23T11:07:12.705Z,2.20
2022-10-23T11:08:12.744Z,6.80
2022-10-23T11:09:20.437Z,6.00
2022-10-23T11:10:13.661Z,2.70
2022-10-23T11:11:12.690Z,2.00
2022-10-23T11:12:12.713Z,4.60
2022-10-23T11:13:12.655Z,3.60
2022-10-23T11:14:12.648Z,4.10
2022-10-23T11:15:12.633Z,6.30
2022-10-23T11:16:12.650Z,4.40
2022-10-23T11:17:12.626Z,5.50
2022-10-23T11:18:12.636Z,3.40
2022-10-23T11:19:14.026Z,4.00
2022-10-23T11:20:12.594Z,4.30
2022-10-23T11:21:12.727Z,2.60
2022-10-23T11:22:12.661Z,5.90
2022-10-23T11:23:12.580Z,5.10
2022-10-23T11:24:12.582Z,4.40
2022-10-23T11:25:12.555Z,4.00
2022-10-23T11:26:14.226Z,4.90
2022-10-23T11:27:12.559Z,2.50
2022-10-23T11:28:12.560Z,5.10
2022-10-23T11:29:12.621Z,3.90
2022-10-23T11:30:12.577Z,4.00
2022-10-23T11:31:12.531Z,3.50
2022-10-23T11:32:12.752Z,3.60
2022-10-23T11:33:12.500Z,4.10
2022-10-23T11:34:12.528Z,5.70
2022-10-23T11:35:12.497Z,2.80
2022-10-23T11:36:12.553Z,6.10
2022-10-23T11:37:12.478Z,6.60
2022-10-23T11:38:12.709Z,4.60
2022-10-23T11:39:12.478Z,2.80
2022-10-23T11:40:12.554Z,3.20
2022-10-23T11:41:12.500Z,6.20
2022-10-23T11:42:12.436Z,3.70
2022-10-23T11:43:12.605Z,4.60
2022-10-23T11:44:13.080Z,3.80
2022-10-23T11:45:12.486Z,3.80
2022-10-23T11:46:12.428Z,2.60
2022-10-23T11:47:12.414Z,4.00
2022-10-23T11:48:12.411Z,5.50
2022-10-23T11:50:12.527Z,4.40
2022-10-23T11:51:12.416Z,3.10
2022-10-23T11:52:12.383Z,4.80
2022-10-23T11:53:14.839Z,2.70
2022-10-23T11:54:12.418Z,6.90
2022-10-23T11:55:12.369Z,9.80
2022-10-23T11:56:12.805Z,3.10
2022-10-23T11:57:14.268Z,3.40
2022-10-23T11:58:12.349Z,4.70
2022-10-23T11:59:12.326Z,5.50
2022-10-23T12:00:12.349Z,4.00
2022-10-23T12:01:12.374Z,3.40
2022-10-23T12:02:12.441Z,5.10
2022-10-23T12:03:12.292Z,5.90
2022-10-23T12:04:12.339Z,3.30
2022-10-23T12:05:12.318Z,3.70
2022-10-23T12:06:12.379Z,3.40
2022-10-23T12:07:12.265Z,5.30
2022-10-23T12:08:12.307Z,3.00
2022-10-23T12:09:12.696Z,4.30
2022-10-23T12:10:12.272Z,6.40
2022-10-23T12:11:12.298Z,4.70
2022-10-23T12:12:12.253Z,2.50
2022-10-23T12:13:12.236Z,4.10
2022-10-23T12:15:12.221Z,6.90
2022-10-23T12:16:12.209Z,3.10
2022-10-23T12:17:12.203Z,5.00
2022-10-23T12:18:12.200Z,4.90
2022-10-23T12:19:12.592Z,5.10
2022-10-23T12:20:12.255Z,5.20
2022-10-23T12:21:12.167Z,2.80
2022-10-23T12:22:12.206Z,5.00
2022-10-23T12:23:12.214Z,4.10
2022-10-23T12:24:12.397Z,4.60
2022-10-23T12:25:12.190Z,3.70
2022-10-23T12:26:12.169Z,3.90
2022-10-23T12:27:12.129Z,5.30
2022-10-23T12:28:12.149Z,4.30
2022-10-23T12:29:12.337Z,3.70
2022-10-23T12:30:12.163Z,5.50
2022-10-23T12:31:12.171Z,6.60
2022-10-23T12:32:12.116Z,4.00
2022-10-23T12:33:12.096Z,3.90
2022-10-23T12:34:12.086Z,3.50
2022-10-23T12:35:12.065Z,3.30
2022-10-23T12:36:12.087Z,3.00
2022-10-23T12:37:12.063Z,2.00
2022-10-23T12:38:12.090Z,3.40
2022-10-23T12:39:12.136Z,5.60
2022-10-23T12:40:12.066Z,3.00
2022-10-23T12:41:12.069Z,3.20
2022-10-23T12:42:12.190Z,4.90
2022-10-23T12:43:12.035Z,5.10
2022-10-23T12:44:12.023Z,3.80
2022-10-23T12:45:12.018Z,3.30
2022-10-23T12:46:14.134Z,3.80
2022-10-23T12:47:12.200Z,3.70
2022-10-23T12:48:12.051Z,4.70
2022-10-23T12:49:11.971Z,2.40
2022-10-23T12:50:11.971Z,2.60
2022-10-23T12:51:11.968Z,2.00
2022-10-23T12:52:12.537Z,2.50
2022-10-23T12:53:12.305Z,1.30
2022-10-23T12:54:11.961Z,3.50
2022-10-23T12:55:12.212Z,5.40